Providence, Illinois
Current Conditions -  °F | °C
As of 2:35 AM on Friday 31 Oct 2014 (Local Time) from KC75 Reporting Station
Overcast Overcast  
Wind Chill: 42°   Ceiling: 4700
Heat Index: 46°   Visibility: 10mi
Dew Point: 39°   Wind: 7mph
Humidity: 78%   Direction: 320°NW
Pressure: 30.08"   Gusts: NA
Location:  41.2776°N, 89.5099°W
Report Text: KC75 310735Z AUTO 32006KT 10SM BKN047 OVC050 08/04 A3008 RMK AO2 T00750039
Loading
Personal Weather Stations






























Interactive Weather Map New forecast layout! Learn more

10-Day Weather Forecast

Advertisements
Track Severe Weather on mobile